sensor_id;sensor_type;location;lat;lon;timestamp;P1;durP1;ratioP1;P2;durP2;ratioP2
55758;SDS011;41678;52.126;20.664;2022-12-29T00:00:04;10.30;;;4.20;;
55758;SDS011;41678;52.126;20.664;2022-12-29T00:05:55;15.73;;;5.45;;
55758;SDS011;41678;52.126;20.664;2022-12-29T00:11:16;13.35;;;4.18;;
55758;SDS011;41678;52.126;20.664;2022-12-29T00:16:37;14.45;;;5.05;;
55758;SDS011;41678;52.126;20.664;2022-12-29T00:27:37;13.45;;;4.20;;
55758;SDS011;41678;52.126;20.664;2022-12-29T00:33:17;10.55;;;3.53;;
55758;SDS011;41678;52.126;20.664;2022-12-29T00:39:01;12.70;;;4.28;;
55758;SDS011;41678;52.126;20.664;2022-12-29T00:44:41;9.82;;;3.67;;
55758;SDS011;41678;52.126;20.664;2022-12-29T00:50:03;11.38;;;3.75;;
55758;SDS011;41678;52.126;20.664;2022-12-29T00:55:22;7.28;;;3.10;;
55758;SDS011;41678;52.126;20.664;2022-12-29T01:00:43;12.52;;;3.75;;
55758;SDS011;41678;52.126;20.664;2022-12-29T01:06:04;5.53;;;2.58;;
55758;SDS011;41678;52.126;20.664;2022-12-29T01:11:25;10.05;;;3.25;;
55758;SDS011;41678;52.126;20.664;2022-12-29T01:16:45;10.18;;;3.40;;
55758;SDS011;41678;52.126;20.664;2022-12-29T01:22:05;10.70;;;3.80;;
55758;SDS011;41678;52.126;20.664;2022-12-29T01:27:24;9.98;;;3.30;;
55758;SDS011;41678;52.126;20.664;2022-12-29T01:32:44;11.00;;;3.47;;
55758;SDS011;41678;52.126;20.664;2022-12-29T01:38:03;8.50;;;3.15;;
55758;SDS011;41678;52.126;20.664;2022-12-29T01:43:57;9.20;;;3.10;;
55758;SDS011;41678;52.126;20.664;2022-12-29T01:49:15;11.50;;;3.42;;
55758;SDS011;41678;52.126;20.664;2022-12-29T01:54:47;8.98;;;2.97;;
55758;SDS011;41678;52.126;20.664;2022-12-29T02:00:11;9.48;;;3.00;;
55758;SDS011;41678;52.126;20.664;2022-12-29T02:11:31;12.75;;;2.75;;
55758;SDS011;41678;52.126;20.664;2022-12-29T02:16:56;9.38;;;3.53;;
55758;SDS011;41678;52.126;20.664;2022-12-29T02:33:44;6.95;;;3.60;;
55758;SDS011;41678;52.126;20.664;2022-12-29T02:44:52;8.05;;;3.00;;
55758;SDS011;41678;52.126;20.664;2022-12-29T02:50:23;9.15;;;2.67;;
55758;SDS011;41678;52.126;20.664;2022-12-29T02:55:49;9.98;;;3.00;;
55758;SDS011;41678;52.126;20.664;2022-12-29T03:13:44;8.77;;;3.22;;
55758;SDS011;41678;52.126;20.664;2022-12-29T03:19:35;10.00;;;2.65;;
55758;SDS011;41678;52.126;20.664;2022-12-29T03:30:28;8.98;;;2.95;;
55758;SDS011;41678;52.126;20.664;2022-12-29T03:35:52;7.13;;;2.38;;
55758;SDS011;41678;52.126;20.664;2022-12-29T03:41:18;12.95;;;3.28;;
55758;SDS011;41678;52.126;20.664;2022-12-29T03:46:42;10.77;;;3.42;;
55758;SDS011;41678;52.126;20.664;2022-12-29T03:52:02;7.60;;;2.80;;
55758;SDS011;41678;52.126;20.664;2022-12-29T03:57:23;8.70;;;3.17;;
55758;SDS011;41678;52.126;20.664;2022-12-29T04:02:53;8.10;;;2.58;;
55758;SDS011;41678;52.126;20.664;2022-12-29T04:08:16;8.32;;;3.22;;
55758;SDS011;41678;52.126;20.664;2022-12-29T04:13:36;6.90;;;2.53;;
55758;SDS011;41678;52.126;20.664;2022-12-29T04:18:57;13.35;;;3.17;;
55758;SDS011;41678;52.126;20.664;2022-12-29T04:24:16;9.02;;;2.67;;
55758;SDS011;41678;52.126;20.664;2022-12-29T04:29:36;6.45;;;2.40;;
55758;SDS011;41678;52.126;20.664;2022-12-29T04:35:14;7.75;;;2.75;;
55758;SDS011;41678;52.126;20.664;2022-12-29T04:40:35;10.18;;;3.33;;
55758;SDS011;41678;52.126;20.664;2022-12-29T04:45:55;11.05;;;3.40;;
55758;SDS011;41678;52.126;20.664;2022-12-29T04:51:20;12.48;;;3.30;;
55758;SDS011;41678;52.126;20.664;2022-12-29T04:56:40;13.98;;;3.10;;
55758;SDS011;41678;52.126;20.664;2022-12-29T05:02:01;10.10;;;4.22;;
55758;SDS011;41678;52.126;20.664;2022-12-29T05:07:20;13.98;;;3.55;;
55758;SDS011;41678;52.126;20.664;2022-12-29T05:12:41;10.30;;;3.85;;
55758;SDS011;41678;52.126;20.664;2022-12-29T05:18:01;17.90;;;5.30;;
55758;SDS011;41678;52.126;20.664;2022-12-29T05:23:22;13.27;;;4.50;;
55758;SDS011;41678;52.126;20.664;2022-12-29T05:28:52;10.80;;;4.40;;
55758;SDS011;41678;52.126;20.664;2022-12-29T05:34:12;8.15;;;3.75;;
55758;SDS011;41678;52.126;20.664;2022-12-29T05:39:33;9.52;;;3.22;;
55758;SDS011;41678;52.126;20.664;2022-12-29T05:44:55;10.70;;;3.35;;
55758;SDS011;41678;52.126;20.664;2022-12-29T05:50:30;15.25;;;3.33;;
55758;SDS011;41678;52.126;20.664;2022-12-29T05:56:01;6.97;;;3.10;;
55758;SDS011;41678;52.126;20.664;2022-12-29T06:01:21;17.85;;;4.90;;
55758;SDS011;41678;52.126;20.664;2022-12-29T06:06:41;9.48;;;3.60;;
55758;SDS011;41678;52.126;20.664;2022-12-29T06:12:07;9.35;;;3.50;;
55758;SDS011;41678;52.126;20.664;2022-12-29T06:17:27;12.73;;;4.20;;
55758;SDS011;41678;52.126;20.664;2022-12-29T06:22:47;9.27;;;3.70;;
55758;SDS011;41678;52.126;20.664;2022-12-29T06:28:07;7.78;;;3.10;;
55758;SDS011;41678;52.126;20.664;2022-12-29T06:33:29;10.30;;;3.10;;
55758;SDS011;41678;52.126;20.664;2022-12-29T06:38:50;10.40;;;3.10;;
55758;SDS011;41678;52.126;20.664;2022-12-29T06:44:11;8.32;;;3.95;;
55758;SDS011;41678;52.126;20.664;2022-12-29T06:49:42;8.13;;;3.30;;
55758;SDS011;41678;52.126;20.664;2022-12-29T06:55:02;6.93;;;2.58;;
55758;SDS011;41678;52.126;20.664;2022-12-29T07:00:23;5.95;;;2.50;;
55758;SDS011;41678;52.126;20.664;2022-12-29T07:05:43;10.38;;;3.33;;
55758;SDS011;41678;52.126;20.664;2022-12-29T07:11:03;10.85;;;2.83;;
55758;SDS011;41678;52.126;20.664;2022-12-29T07:16:23;15.82;;;3.50;;
55758;SDS011;41678;52.126;20.664;2022-12-29T07:21:43;14.27;;;3.65;;
55758;SDS011;41678;52.126;20.664;2022-12-29T07:27:02;9.00;;;2.70;;
55758;SDS011;41678;52.126;20.664;2022-12-29T07:32:22;11.45;;;4.05;;
55758;SDS011;41678;52.126;20.664;2022-12-29T07:37:42;6.50;;;2.50;;
55758;SDS011;41678;52.126;20.664;2022-12-29T07:43:01;7.78;;;2.97;;
55758;SDS011;41678;52.126;20.664;2022-12-29T07:48:30;6.65;;;3.08;;
55758;SDS011;41678;52.126;20.664;2022-12-29T07:53:50;9.00;;;2.08;;
55758;SDS011;41678;52.126;20.664;2022-12-29T07:59:09;8.27;;;2.80;;
55758;SDS011;41678;52.126;20.664;2022-12-29T08:04:29;7.00;;;3.05;;
55758;SDS011;41678;52.126;20.664;2022-12-29T08:09:49;12.48;;;3.67;;
55758;SDS011;41678;52.126;20.664;2022-12-29T08:15:09;9.30;;;2.97;;
55758;SDS011;41678;52.126;20.664;2022-12-29T08:20:30;6.88;;;2.45;;
55758;SDS011;41678;52.126;20.664;2022-12-29T08:25:56;9.80;;;2.72;;
55758;SDS011;41678;52.126;20.664;2022-12-29T08:31:17;8.98;;;3.15;;
55758;SDS011;41678;52.126;20.664;2022-12-29T08:36:36;7.00;;;2.80;;
55758;SDS011;41678;52.126;20.664;2022-12-29T08:41:56;12.55;;;4.13;;
55758;SDS011;41678;52.126;20.664;2022-12-29T08:47:15;8.05;;;3.03;;
55758;SDS011;41678;52.126;20.664;2022-12-29T08:52:35;9.13;;;3.30;;
55758;SDS011;41678;52.126;20.664;2022-12-29T08:57:55;10.40;;;3.72;;
55758;SDS011;41678;52.126;20.664;2022-12-29T09:03:16;5.85;;;2.35;;
55758;SDS011;41678;52.126;20.664;2022-12-29T09:08:36;9.55;;;2.80;;
55758;SDS011;41678;52.126;20.664;2022-12-29T09:13:56;10.27;;;2.97;;
55758;SDS011;41678;52.126;20.664;2022-12-29T09:19:16;7.47;;;2.97;;
55758;SDS011;41678;52.126;20.664;2022-12-29T09:24:35;6.00;;;2.35;;
55758;SDS011;41678;52.126;20.664;2022-12-29T09:29:55;7.10;;;3.13;;
55758;SDS011;41678;52.126;20.664;2022-12-29T09:35:16;7.95;;;2.50;;
55758;SDS011;41678;52.126;20.664;2022-12-29T09:40:35;8.88;;;3.00;;
55758;SDS011;41678;52.126;20.664;2022-12-29T09:51:25;9.20;;;3.72;;
55758;SDS011;41678;52.126;20.664;2022-12-29T09:56:45;9.80;;;3.50;;
55758;SDS011;41678;52.126;20.664;2022-12-29T10:13:52;11.15;;;4.47;;
55758;SDS011;41678;52.126;20.664;2022-12-29T10:19:28;9.15;;;3.53;;
55758;SDS011;41678;52.126;20.664;2022-12-29T10:25:11;14.90;;;3.50;;
55758;SDS011;41678;52.126;20.664;2022-12-29T10:30:36;10.77;;;3.63;;
55758;SDS011;41678;52.126;20.664;2022-12-29T10:35:57;21.15;;;3.95;;
55758;SDS011;41678;52.126;20.664;2022-12-29T10:47:00;9.32;;;3.35;;
55758;SDS011;41678;52.126;20.664;2022-12-29T10:52:24;12.93;;;3.53;;
55758;SDS011;41678;52.126;20.664;2022-12-29T10:57:45;7.95;;;3.17;;
55758;SDS011;41678;52.126;20.664;2022-12-29T11:08:55;8.27;;;3.25;;
55758;SDS011;41678;52.126;20.664;2022-12-29T11:14:30;10.32;;;3.42;;
55758;SDS011;41678;52.126;20.664;2022-12-29T11:19:50;15.20;;;3.28;;
55758;SDS011;41678;52.126;20.664;2022-12-29T11:25:10;12.57;;;4.47;;
55758;SDS011;41678;52.126;20.664;2022-12-29T11:30:32;13.45;;;4.43;;
55758;SDS011;41678;52.126;20.664;2022-12-29T11:35:53;12.75;;;3.25;;
55758;SDS011;41678;52.126;20.664;2022-12-29T11:41:25;20.23;;;3.95;;
55758;SDS011;41678;52.126;20.664;2022-12-29T11:46:48;15.43;;;4.03;;
55758;SDS011;41678;52.126;20.664;2022-12-29T11:52:09;11.95;;;3.40;;
55758;SDS011;41678;52.126;20.664;2022-12-29T11:57:32;12.82;;;3.38;;
55758;SDS011;41678;52.126;20.664;2022-12-29T12:02:58;7.18;;;2.85;;
55758;SDS011;41678;52.126;20.664;2022-12-29T12:08:31;10.18;;;3.65;;
55758;SDS011;41678;52.126;20.664;2022-12-29T12:14:00;7.60;;;2.88;;
55758;SDS011;41678;52.126;20.664;2022-12-29T12:25:59;9.40;;;3.60;;
55758;SDS011;41678;52.126;20.664;2022-12-29T12:31:32;11.13;;;3.33;;
55758;SDS011;41678;52.126;20.664;2022-12-29T12:37:20;20.13;;;3.60;;
55758;SDS011;41678;52.126;20.664;2022-12-29T12:42:58;10.20;;;4.13;;
55758;SDS011;41678;52.126;20.664;2022-12-29T12:48:29;11.00;;;3.75;;
55758;SDS011;41678;52.126;20.664;2022-12-29T12:54:13;9.60;;;3.55;;
55758;SDS011;41678;52.126;20.664;2022-12-29T13:00:00;15.40;;;3.65;;
55758;SDS011;41678;52.126;20.664;2022-12-29T13:05:29;10.32;;;3.40;;
55758;SDS011;41678;52.126;20.664;2022-12-29T13:22:24;11.73;;;3.80;;
55758;SDS011;41678;52.126;20.664;2022-12-29T13:33:47;14.88;;;4.30;;
55758;SDS011;41678;52.126;20.664;2022-12-29T13:39:21;14.30;;;4.28;;
55758;SDS011;41678;52.126;20.664;2022-12-29T13:44:45;13.15;;;3.97;;
55758;SDS011;41678;52.126;20.664;2022-12-29T13:50:12;12.52;;;4.68;;
55758;SDS011;41678;52.126;20.664;2022-12-29T13:55:57;13.93;;;4.93;;
55758;SDS011;41678;52.126;20.664;2022-12-29T14:01:31;16.10;;;4.25;;
55758;SDS011;41678;52.126;20.664;2022-12-29T14:06:59;10.77;;;3.92;;
55758;SDS011;41678;52.126;20.664;2022-12-29T14:12:27;10.88;;;3.92;;
55758;SDS011;41678;52.126;20.664;2022-12-29T14:18:21;15.70;;;4.63;;
55758;SDS011;41678;52.126;20.664;2022-12-29T14:23:44;12.70;;;4.63;;
55758;SDS011;41678;52.126;20.664;2022-12-29T14:30:08;14.32;;;5.35;;
55758;SDS011;41678;52.126;20.664;2022-12-29T14:34:58;12.52;;;4.25;;
55758;SDS011;41678;52.126;20.664;2022-12-29T14:40:24;13.80;;;5.35;;
55758;SDS011;41678;52.126;20.664;2022-12-29T14:45:48;16.77;;;5.35;;
55758;SDS011;41678;52.126;20.664;2022-12-29T14:51:20;15.18;;;4.93;;
55758;SDS011;41678;52.126;20.664;2022-12-29T14:56:51;12.07;;;4.63;;
55758;SDS011;41678;52.126;20.664;2022-12-29T15:02:19;17.98;;;4.43;;
55758;SDS011;41678;52.126;20.664;2022-12-29T15:07:42;13.52;;;4.03;;
55758;SDS011;41678;52.126;20.664;2022-12-29T15:13:04;10.93;;;4.63;;
55758;SDS011;41678;52.126;20.664;2022-12-29T15:18:32;15.82;;;5.15;;
55758;SDS011;41678;52.126;20.664;2022-12-29T15:23:52;14.20;;;4.70;;
55758;SDS011;41678;52.126;20.664;2022-12-29T15:34:57;16.02;;;4.78;;
55758;SDS011;41678;52.126;20.664;2022-12-29T15:40:27;18.95;;;9.13;;
55758;SDS011;41678;52.126;20.664;2022-12-29T15:45:49;18.67;;;5.60;;
55758;SDS011;41678;52.126;20.664;2022-12-29T15:56:37;13.68;;;5.18;;
55758;SDS011;41678;52.126;20.664;2022-12-29T16:01:58;22.15;;;6.88;;
55758;SDS011;41678;52.126;20.664;2022-12-29T16:18:53;14.38;;;5.53;;
55758;SDS011;41678;52.126;20.664;2022-12-29T16:24:18;14.95;;;5.45;;
55758;SDS011;41678;52.126;20.664;2022-12-29T16:29:42;17.15;;;4.75;;
55758;SDS011;41678;52.126;20.664;2022-12-29T16:41:53;10.05;;;4.03;;
55758;SDS011;41678;52.126;20.664;2022-12-29T16:52:33;12.02;;;5.00;;
55758;SDS011;41678;52.126;20.664;2022-12-29T16:57:53;14.32;;;5.60;;
55758;SDS011;41678;52.126;20.664;2022-12-29T17:03:15;15.93;;;5.25;;
55758;SDS011;41678;52.126;20.664;2022-12-29T17:08:42;15.35;;;5.50;;
55758;SDS011;41678;52.126;20.664;2022-12-29T17:14:03;14.13;;;5.60;;
55758;SDS011;41678;52.126;20.664;2022-12-29T17:19:28;12.32;;;4.80;;
55758;SDS011;41678;52.126;20.664;2022-12-29T17:24:53;20.67;;;6.35;;
55758;SDS011;41678;52.126;20.664;2022-12-29T17:30:16;20.63;;;6.20;;
55758;SDS011;41678;52.126;20.664;2022-12-29T17:35:38;15.07;;;5.38;;
55758;SDS011;41678;52.126;20.664;2022-12-29T17:40:58;21.27;;;7.55;;
55758;SDS011;41678;52.126;20.664;2022-12-29T17:46:17;15.50;;;5.63;;
55758;SDS011;41678;52.126;20.664;2022-12-29T17:51:37;11.55;;;4.88;;
55758;SDS011;41678;52.126;20.664;2022-12-29T17:56:56;12.32;;;5.30;;
55758;SDS011;41678;52.126;20.664;2022-12-29T18:02:26;16.38;;;5.40;;
55758;SDS011;41678;52.126;20.664;2022-12-29T18:07:48;10.00;;;4.43;;
55758;SDS011;41678;52.126;20.664;2022-12-29T18:13:14;13.00;;;4.90;;
55758;SDS011;41678;52.126;20.664;2022-12-29T18:18:44;14.13;;;5.07;;
55758;SDS011;41678;52.126;20.664;2022-12-29T18:24:04;12.57;;;4.93;;
55758;SDS011;41678;52.126;20.664;2022-12-29T18:29:24;19.15;;;5.72;;
55758;SDS011;41678;52.126;20.664;2022-12-29T18:34:43;13.77;;;5.68;;
55758;SDS011;41678;52.126;20.664;2022-12-29T18:40:03;22.83;;;6.45;;
55758;SDS011;41678;52.126;20.664;2022-12-29T18:45:24;15.93;;;6.32;;
55758;SDS011;41678;52.126;20.664;2022-12-29T18:50:44;23.55;;;6.60;;
55758;SDS011;41678;52.126;20.664;2022-12-29T18:56:04;17.58;;;5.30;;
55758;SDS011;41678;52.126;20.664;2022-12-29T19:01:26;17.98;;;6.15;;
55758;SDS011;41678;52.126;20.664;2022-12-29T19:06:45;14.80;;;5.65;;
55758;SDS011;41678;52.126;20.664;2022-12-29T19:12:05;12.70;;;5.00;;
55758;SDS011;41678;52.126;20.664;2022-12-29T19:17:24;18.48;;;6.40;;
55758;SDS011;41678;52.126;20.664;2022-12-29T19:22:44;11.60;;;4.93;;
55758;SDS011;41678;52.126;20.664;2022-12-29T19:28:04;17.27;;;5.78;;
55758;SDS011;41678;52.126;20.664;2022-12-29T19:33:25;19.67;;;6.70;;
55758;SDS011;41678;52.126;20.664;2022-12-29T19:38:45;13.40;;;5.07;;
55758;SDS011;41678;52.126;20.664;2022-12-29T19:44:05;15.05;;;5.75;;
55758;SDS011;41678;52.126;20.664;2022-12-29T19:49:26;13.63;;;6.00;;
55758;SDS011;41678;52.126;20.664;2022-12-29T19:54:46;15.38;;;5.97;;
55758;SDS011;41678;52.126;20.664;2022-12-29T20:00:05;21.60;;;6.00;;
55758;SDS011;41678;52.126;20.664;2022-12-29T20:05:31;18.15;;;5.63;;
55758;SDS011;41678;52.126;20.664;2022-12-29T20:11:01;13.55;;;5.40;;
55758;SDS011;41678;52.126;20.664;2022-12-29T20:16:22;13.23;;;5.75;;
55758;SDS011;41678;52.126;20.664;2022-12-29T20:21:43;19.27;;;6.07;;
55758;SDS011;41678;52.126;20.664;2022-12-29T20:27:03;13.98;;;5.53;;
55758;SDS011;41678;52.126;20.664;2022-12-29T20:32:24;18.27;;;5.53;;
55758;SDS011;41678;52.126;20.664;2022-12-29T20:37:44;12.75;;;5.10;;
55758;SDS011;41678;52.126;20.664;2022-12-29T20:43:04;13.32;;;5.60;;
55758;SDS011;41678;52.126;20.664;2022-12-29T20:48:23;18.75;;;6.32;;
55758;SDS011;41678;52.126;20.664;2022-12-29T20:53:43;22.95;;;6.80;;
55758;SDS011;41678;52.126;20.664;2022-12-29T20:59:03;18.77;;;6.75;;
55758;SDS011;41678;52.126;20.664;2022-12-29T21:04:23;17.10;;;5.78;;
55758;SDS011;41678;52.126;20.664;2022-12-29T21:09:43;16.55;;;4.75;;
55758;SDS011;41678;52.126;20.664;2022-12-29T21:15:03;15.75;;;5.93;;
55758;SDS011;41678;52.126;20.664;2022-12-29T21:20:23;13.55;;;4.53;;
55758;SDS011;41678;52.126;20.664;2022-12-29T21:25:50;12.90;;;5.40;;
55758;SDS011;41678;52.126;20.664;2022-12-29T21:31:23;12.85;;;5.32;;
55758;SDS011;41678;52.126;20.664;2022-12-29T21:36:47;18.88;;;6.95;;
55758;SDS011;41678;52.126;20.664;2022-12-29T21:42:06;15.52;;;6.22;;
55758;SDS011;41678;52.126;20.664;2022-12-29T21:47:26;12.32;;;4.82;;
55758;SDS011;41678;52.126;20.664;2022-12-29T21:53:05;7.22;;;3.17;;
55758;SDS011;41678;52.126;20.664;2022-12-29T21:58:25;12.90;;;5.57;;
55758;SDS011;41678;52.126;20.664;2022-12-29T22:04:03;11.27;;;5.35;;
55758;SDS011;41678;52.126;20.664;2022-12-29T22:09:41;12.50;;;5.13;;
55758;SDS011;41678;52.126;20.664;2022-12-29T22:15:20;13.32;;;5.35;;
55758;SDS011;41678;52.126;20.664;2022-12-29T22:20:40;10.88;;;4.78;;
55758;SDS011;41678;52.126;20.664;2022-12-29T22:26:04;14.77;;;5.43;;
55758;SDS011;41678;52.126;20.664;2022-12-29T22:31:26;12.70;;;5.38;;
55758;SDS011;41678;52.126;20.664;2022-12-29T22:36:48;14.38;;;5.63;;
55758;SDS011;41678;52.126;20.664;2022-12-29T22:42:07;12.32;;;5.00;;
55758;SDS011;41678;52.126;20.664;2022-12-29T22:47:27;14.85;;;5.30;;
55758;SDS011;41678;52.126;20.664;2022-12-29T22:52:46;12.85;;;4.68;;
55758;SDS011;41678;52.126;20.664;2022-12-29T22:58:06;18.63;;;5.85;;
55758;SDS011;41678;52.126;20.664;2022-12-29T23:03:25;13.55;;;5.40;;
55758;SDS011;41678;52.126;20.664;2022-12-29T23:08:45;13.90;;;6.03;;
55758;SDS011;41678;52.126;20.664;2022-12-29T23:14:05;10.82;;;4.82;;
55758;SDS011;41678;52.126;20.664;2022-12-29T23:19:24;11.10;;;5.10;;
55758;SDS011;41678;52.126;20.664;2022-12-29T23:24:44;11.75;;;4.78;;
55758;SDS011;41678;52.126;20.664;2022-12-29T23:30:03;12.63;;;5.10;;
55758;SDS011;41678;52.126;20.664;2022-12-29T23:35:24;14.68;;;5.50;;
55758;SDS011;41678;52.126;20.664;2022-12-29T23:40:44;11.75;;;5.28;;
55758;SDS011;41678;52.126;20.664;2022-12-29T23:46:04;14.52;;;5.18;;
55758;SDS011;41678;52.126;20.664;2022-12-29T23:51:28;15.68;;;6.05;;
55758;SDS011;41678;52.126;20.664;2022-12-29T23:56:47;13.75;;;5.28;;
